sensor_id;sensor_type;location;lat;lon;timestamp;temperature;humidity
12839;DHT22;6486;51.034;5.262;2024-01-11T00:01:03;17.90;29.20
12839;DHT22;6486;51.034;5.262;2024-01-11T00:03:29;17.90;29.20
12839;DHT22;6486;51.034;5.262;2024-01-11T00:05:55;17.90;29.20
12839;DHT22;6486;51.034;5.262;2024-01-11T00:08:20;17.90;29.20
12839;DHT22;6486;51.034;5.262;2024-01-11T00:10:46;17.90;29.20
12839;DHT22;6486;51.034;5.262;2024-01-11T00:13:12;17.90;29.20
12839;DHT22;6486;51.034;5.262;2024-01-11T00:15:37;17.90;29.20
12839;DHT22;6486;51.034;5.262;2024-01-11T00:18:03;17.90;29.20
12839;DHT22;6486;51.034;5.262;2024-01-11T00:20:29;17.90;29.20
12839;DHT22;6486;51.034;5.262;2024-01-11T00:22:55;17.90;29.20
12839;DHT22;6486;51.034;5.262;2024-01-11T00:25:20;17.90;29.20
12839;DHT22;6486;51.034;5.262;2024-01-11T00:27:46;17.90;29.30
12839;DHT22;6486;51.034;5.262;2024-01-11T00:30:12;17.90;29.30
12839;DHT22;6486;51.034;5.262;2024-01-11T00:32:37;17.90;29.30
12839;DHT22;6486;51.034;5.262;2024-01-11T00:35:03;17.90;29.30
12839;DHT22;6486;51.034;5.262;2024-01-11T00:37:29;17.80;29.20
12839;DHT22;6486;51.034;5.262;2024-01-11T00:39:55;17.90;29.30
12839;DHT22;6486;51.034;5.262;2024-01-11T00:42:20;17.80;29.20
12839;DHT22;6486;51.034;5.262;2024-01-11T00:44:46;17.90;29.30
12839;DHT22;6486;51.034;5.262;2024-01-11T00:47:12;17.90;29.30
12839;DHT22;6486;51.034;5.262;2024-01-11T00:49:37;17.90;29.30
12839;DHT22;6486;51.034;5.262;2024-01-11T00:52:03;17.90;29.30
12839;DHT22;6486;51.034;5.262;2024-01-11T00:54:29;17.90;29.30
12839;DHT22;6486;51.034;5.262;2024-01-11T00:56:55;17.90;29.30
12839;DHT22;6486;51.034;5.262;2024-01-11T00:59:21;17.90;29.30
12839;DHT22;6486;51.034;5.262;2024-01-11T01:01:50;17.90;29.30
12839;DHT22;6486;51.034;5.262;2024-01-11T01:04:16;17.90;29.30
12839;DHT22;6486;51.034;5.262;2024-01-11T01:06:42;17.90;29.30
12839;DHT22;6486;51.034;5.262;2024-01-11T01:09:08;17.90;29.30
12839;DHT22;6486;51.034;5.262;2024-01-11T01:11:34;17.90;29.30
12839;DHT22;6486;51.034;5.262;2024-01-11T01:14:00;17.90;29.30
12839;DHT22;6486;51.034;5.262;2024-01-11T01:16:25;17.90;29.40
12839;DHT22;6486;51.034;5.262;2024-01-11T01:18:51;17.90;29.40
12839;DHT22;6486;51.034;5.262;2024-01-11T01:21:17;17.90;29.40
12839;DHT22;6486;51.034;5.262;2024-01-11T01:23:43;17.90;29.40
12839;DHT22;6486;51.034;5.262;2024-01-11T01:26:09;17.90;29.40
12839;DHT22;6486;51.034;5.262;2024-01-11T01:28:34;17.90;29.40
12839;DHT22;6486;51.034;5.262;2024-01-11T01:31:01;17.90;29.40
12839;DHT22;6486;51.034;5.262;2024-01-11T01:33:27;17.90;29.40
12839;DHT22;6486;51.034;5.262;2024-01-11T01:35:53;17.90;29.40
12839;DHT22;6486;51.034;5.262;2024-01-11T01:38:18;17.90;29.40
12839;DHT22;6486;51.034;5.262;2024-01-11T01:40:44;17.90;29.40
12839;DHT22;6486;51.034;5.262;2024-01-11T01:43:10;17.90;29.40
12839;DHT22;6486;51.034;5.262;2024-01-11T01:45:36;17.90;29.40
12839;DHT22;6486;51.034;5.262;2024-01-11T01:48:02;17.90;29.40
12839;DHT22;6486;51.034;5.262;2024-01-11T01:50:28;17.90;29.40
12839;DHT22;6486;51.034;5.262;2024-01-11T01:52:55;17.90;29.40
12839;DHT22;6486;51.034;5.262;2024-01-11T01:55:22;17.90;29.50
12839;DHT22;6486;51.034;5.262;2024-01-11T01:57:49;17.90;29.40
12839;DHT22;6486;51.034;5.262;2024-01-11T02:00:15;17.90;29.50
12839;DHT22;6486;51.034;5.262;2024-01-11T02:02:43;17.90;29.50
12839;DHT22;6486;51.034;5.262;2024-01-11T02:05:14;17.90;29.50
12839;DHT22;6486;51.034;5.262;2024-01-11T02:07:41;17.90;29.50
12839;DHT22;6486;51.034;5.262;2024-01-11T02:10:07;17.90;29.50
12839;DHT22;6486;51.034;5.262;2024-01-11T02:12:35;17.90;29.50
12839;DHT22;6486;51.034;5.262;2024-01-11T02:15:02;17.90;29.50
12839;DHT22;6486;51.034;5.262;2024-01-11T02:17:29;17.90;29.50
12839;DHT22;6486;51.034;5.262;2024-01-11T02:19:55;17.90;29.50
12839;DHT22;6486;51.034;5.262;2024-01-11T02:22:25;17.90;29.50
12839;DHT22;6486;51.034;5.262;2024-01-11T02:24:53;17.90;29.50
12839;DHT22;6486;51.034;5.262;2024-01-11T02:27:19;17.90;29.50
12839;DHT22;6486;51.034;5.262;2024-01-11T02:29:45;17.90;29.50
12839;DHT22;6486;51.034;5.262;2024-01-11T02:32:11;17.90;29.50
12839;DHT22;6486;51.034;5.262;2024-01-11T02:34:37;17.90;29.50
12839;DHT22;6486;51.034;5.262;2024-01-11T02:37:04;17.90;29.50
12839;DHT22;6486;51.034;5.262;2024-01-11T02:39:31;17.90;29.50
12839;DHT22;6486;51.034;5.262;2024-01-11T02:41:58;17.90;29.50
12839;DHT22;6486;51.034;5.262;2024-01-11T02:44:24;17.90;29.50
12839;DHT22;6486;51.034;5.262;2024-01-11T02:46:50;17.90;29.50
12839;DHT22;6486;51.034;5.262;2024-01-11T02:49:15;17.90;29.50
12839;DHT22;6486;51.034;5.262;2024-01-11T02:51:41;17.90;29.50
12839;DHT22;6486;51.034;5.262;2024-01-11T02:54:07;17.90;29.60
12839;DHT22;6486;51.034;5.262;2024-01-11T02:56:32;17.90;29.50
12839;DHT22;6486;51.034;5.262;2024-01-11T02:58:58;17.90;29.60
12839;DHT22;6486;51.034;5.262;2024-01-11T03:01:24;17.90;29.60
12839;DHT22;6486;51.034;5.262;2024-01-11T03:03:49;17.90;29.60
12839;DHT22;6486;51.034;5.262;2024-01-11T03:06:15;17.90;29.60
12839;DHT22;6486;51.034;5.262;2024-01-11T03:08:43;17.90;29.70
12839;DHT22;6486;51.034;5.262;2024-01-11T03:11:08;17.90;29.60
12839;DHT22;6486;51.034;5.262;2024-01-11T03:13:34;17.90;29.60
12839;DHT22;6486;51.034;5.262;2024-01-11T03:16:00;17.90;29.60
12839;DHT22;6486;51.034;5.262;2024-01-11T03:18:25;17.90;29.60
12839;DHT22;6486;51.034;5.262;2024-01-11T03:20:51;17.90;29.60
12839;DHT22;6486;51.034;5.262;2024-01-11T03:23:16;17.90;29.60
12839;DHT22;6486;51.034;5.262;2024-01-11T03:25:42;17.90;29.60
12839;DHT22;6486;51.034;5.262;2024-01-11T03:28:08;17.90;29.60
12839;DHT22;6486;51.034;5.262;2024-01-11T03:30:33;17.90;29.60
12839;DHT22;6486;51.034;5.262;2024-01-11T03:32:59;17.90;29.60
12839;DHT22;6486;51.034;5.262;2024-01-11T03:35:25;17.90;30.00
12839;DHT22;6486;51.034;5.262;2024-01-11T03:37:50;17.90;29.60
12839;DHT22;6486;51.034;5.262;2024-01-11T03:40:17;17.90;29.60
12839;DHT22;6486;51.034;5.262;2024-01-11T03:42:42;17.90;29.70
12839;DHT22;6486;51.034;5.262;2024-01-11T03:45:09;17.90;29.60
12839;DHT22;6486;51.034;5.262;2024-01-11T03:47:35;17.90;29.60
12839;DHT22;6486;51.034;5.262;2024-01-11T03:50:00;17.90;29.70
12839;DHT22;6486;51.034;5.262;2024-01-11T03:52:26;17.90;29.70
12839;DHT22;6486;51.034;5.262;2024-01-11T03:54:51;17.90;29.70
12839;DHT22;6486;51.034;5.262;2024-01-11T03:57:17;17.90;29.70
12839;DHT22;6486;51.034;5.262;2024-01-11T03:59:43;17.90;29.70
12839;DHT22;6486;51.034;5.262;2024-01-11T04:02:09;17.90;29.70
12839;DHT22;6486;51.034;5.262;2024-01-11T04:04:35;17.90;29.70
12839;DHT22;6486;51.034;5.262;2024-01-11T04:07:00;17.90;29.70
12839;DHT22;6486;51.034;5.262;2024-01-11T04:09:26;17.90;29.70
12839;DHT22;6486;51.034;5.262;2024-01-11T04:11:52;17.90;29.70
12839;DHT22;6486;51.034;5.262;2024-01-11T04:14:17;17.90;29.70
12839;DHT22;6486;51.034;5.262;2024-01-11T04:16:43;17.90;29.70
12839;DHT22;6486;51.034;5.262;2024-01-11T04:19:09;17.90;29.70
12839;DHT22;6486;51.034;5.262;2024-01-11T04:21:35;17.90;29.70
12839;DHT22;6486;51.034;5.262;2024-01-11T04:24:04;17.90;29.70
12839;DHT22;6486;51.034;5.262;2024-01-11T04:26:31;17.90;29.70
12839;DHT22;6486;51.034;5.262;2024-01-11T04:28:57;17.90;29.70
12839;DHT22;6486;51.034;5.262;2024-01-11T04:31:25;17.90;29.70
12839;DHT22;6486;51.034;5.262;2024-01-11T04:33:50;17.90;29.70
12839;DHT22;6486;51.034;5.262;2024-01-11T04:36:16;17.90;29.70
12839;DHT22;6486;51.034;5.262;2024-01-11T04:38:42;17.90;29.70
12839;DHT22;6486;51.034;5.262;2024-01-11T04:41:11;17.90;29.70
12839;DHT22;6486;51.034;5.262;2024-01-11T04:43:44;17.90;29.70
12839;DHT22;6486;51.034;5.262;2024-01-11T04:48:40;17.90;29.70
12839;DHT22;6486;51.034;5.262;2024-01-11T04:51:05;17.90;29.80
12839;DHT22;6486;51.034;5.262;2024-01-11T04:53:31;17.90;29.80
12839;DHT22;6486;51.034;5.262;2024-01-11T04:55:57;17.90;29.80
12839;DHT22;6486;51.034;5.262;2024-01-11T04:58:23;17.90;29.80
12839;DHT22;6486;51.034;5.262;2024-01-11T05:00:49;17.90;29.80
12839;DHT22;6486;51.034;5.262;2024-01-11T05:03:14;17.90;29.80
12839;DHT22;6486;51.034;5.262;2024-01-11T05:05:40;17.90;29.80
12839;DHT22;6486;51.034;5.262;2024-01-11T05:08:05;17.90;29.80
12839;DHT22;6486;51.034;5.262;2024-01-11T05:10:31;17.90;29.80
12839;DHT22;6486;51.034;5.262;2024-01-11T05:12:57;17.90;29.80
12839;DHT22;6486;51.034;5.262;2024-01-11T05:15:22;17.90;29.80
12839;DHT22;6486;51.034;5.262;2024-01-11T05:17:48;17.90;29.80
12839;DHT22;6486;51.034;5.262;2024-01-11T05:20:14;17.90;29.80
12839;DHT22;6486;51.034;5.262;2024-01-11T05:22:40;17.90;29.80
12839;DHT22;6486;51.034;5.262;2024-01-11T05:25:06;17.90;29.80
12839;DHT22;6486;51.034;5.262;2024-01-11T05:27:32;17.90;29.80
12839;DHT22;6486;51.034;5.262;2024-01-11T05:29:57;17.90;29.80
12839;DHT22;6486;51.034;5.262;2024-01-11T05:32:23;17.90;29.80
12839;DHT22;6486;51.034;5.262;2024-01-11T05:34:48;17.90;29.80
12839;DHT22;6486;51.034;5.262;2024-01-11T05:37:14;17.90;29.80
12839;DHT22;6486;51.034;5.262;2024-01-11T05:39:40;17.90;29.90
12839;DHT22;6486;51.034;5.262;2024-01-11T05:42:06;17.90;29.90
12839;DHT22;6486;51.034;5.262;2024-01-11T05:44:31;17.90;29.90
12839;DHT22;6486;51.034;5.262;2024-01-11T05:46:57;17.90;29.90
12839;DHT22;6486;51.034;5.262;2024-01-11T05:49:23;17.90;29.90
12839;DHT22;6486;51.034;5.262;2024-01-11T05:51:49;17.90;29.90
12839;DHT22;6486;51.034;5.262;2024-01-11T05:54:14;17.90;29.90
12839;DHT22;6486;51.034;5.262;2024-01-11T05:56:40;17.90;29.90
12839;DHT22;6486;51.034;5.262;2024-01-11T05:59:06;17.90;29.90
12839;DHT22;6486;51.034;5.262;2024-01-11T06:01:31;17.90;29.90
12839;DHT22;6486;51.034;5.262;2024-01-11T06:03:57;17.90;29.90
12839;DHT22;6486;51.034;5.262;2024-01-11T06:06:23;17.90;29.90
12839;DHT22;6486;51.034;5.262;2024-01-11T06:08:48;17.90;29.90
12839;DHT22;6486;51.034;5.262;2024-01-11T06:11:14;17.90;29.90
12839;DHT22;6486;51.034;5.262;2024-01-11T06:13:42;17.90;29.90
12839;DHT22;6486;51.034;5.262;2024-01-11T06:16:08;17.90;29.90
12839;DHT22;6486;51.034;5.262;2024-01-11T06:18:35;17.90;29.90
12839;DHT22;6486;51.034;5.262;2024-01-11T06:21:01;17.90;29.90
12839;DHT22;6486;51.034;5.262;2024-01-11T06:23:26;17.90;29.90
12839;DHT22;6486;51.034;5.262;2024-01-11T06:25:52;17.90;29.90
12839;DHT22;6486;51.034;5.262;2024-01-11T06:28:18;17.90;29.90
12839;DHT22;6486;51.034;5.262;2024-01-11T06:30:43;17.90;29.90
12839;DHT22;6486;51.034;5.262;2024-01-11T06:33:09;17.90;29.90
12839;DHT22;6486;51.034;5.262;2024-01-11T06:35:35;17.90;29.90
12839;DHT22;6486;51.034;5.262;2024-01-11T06:38:00;17.90;30.00
12839;DHT22;6486;51.034;5.262;2024-01-11T06:40:26;17.90;30.00
12839;DHT22;6486;51.034;5.262;2024-01-11T06:42:52;17.90;30.00
12839;DHT22;6486;51.034;5.262;2024-01-11T06:45:18;17.90;30.00
12839;DHT22;6486;51.034;5.262;2024-01-11T06:47:44;17.90;30.00
12839;DHT22;6486;51.034;5.262;2024-01-11T06:50:12;17.90;30.00
12839;DHT22;6486;51.034;5.262;2024-01-11T06:52:38;17.90;30.00
12839;DHT22;6486;51.034;5.262;2024-01-11T06:55:04;17.90;30.00
12839;DHT22;6486;51.034;5.262;2024-01-11T06:57:30;17.90;29.90
12839;DHT22;6486;51.034;5.262;2024-01-11T06:59:56;17.90;30.00
12839;DHT22;6486;51.034;5.262;2024-01-11T07:02:21;17.90;30.00
12839;DHT22;6486;51.034;5.262;2024-01-11T07:04:47;17.90;29.90
12839;DHT22;6486;51.034;5.262;2024-01-11T07:07:13;17.90;30.00
12839;DHT22;6486;51.034;5.262;2024-01-11T07:09:39;17.90;30.00
12839;DHT22;6486;51.034;5.262;2024-01-11T07:12:05;17.90;29.90
12839;DHT22;6486;51.034;5.262;2024-01-11T07:14:31;18.00;30.00
12839;DHT22;6486;51.034;5.262;2024-01-11T07:16:57;17.90;30.00
12839;DHT22;6486;51.034;5.262;2024-01-11T07:19:23;17.90;30.00
12839;DHT22;6486;51.034;5.262;2024-01-11T07:21:49;17.90;30.00
12839;DHT22;6486;51.034;5.262;2024-01-11T07:24:14;17.90;30.00
12839;DHT22;6486;51.034;5.262;2024-01-11T07:26:41;17.90;30.00
12839;DHT22;6486;51.034;5.262;2024-01-11T07:29:07;17.90;30.00
12839;DHT22;6486;51.034;5.262;2024-01-11T07:31:32;17.90;30.60
12839;DHT22;6486;51.034;5.262;2024-01-11T07:33:59;17.90;30.00
12839;DHT22;6486;51.034;5.262;2024-01-11T07:36:25;17.90;30.00
12839;DHT22;6486;51.034;5.262;2024-01-11T07:38:51;17.90;30.00
12839;DHT22;6486;51.034;5.262;2024-01-11T07:41:16;17.90;30.00
12839;DHT22;6486;51.034;5.262;2024-01-11T07:43:42;17.90;30.00
12839;DHT22;6486;51.034;5.262;2024-01-11T07:46:08;17.90;30.00
12839;DHT22;6486;51.034;5.262;2024-01-11T07:48:35;17.90;30.00
12839;DHT22;6486;51.034;5.262;2024-01-11T07:51:00;17.90;30.00
12839;DHT22;6486;51.034;5.262;2024-01-11T07:53:26;17.90;30.00
12839;DHT22;6486;51.034;5.262;2024-01-11T07:55:52;17.90;30.00
12839;DHT22;6486;51.034;5.262;2024-01-11T07:58:18;17.90;30.00
12839;DHT22;6486;51.034;5.262;2024-01-11T08:00:46;17.90;30.00
12839;DHT22;6486;51.034;5.262;2024-01-11T08:03:12;17.90;30.00
12839;DHT22;6486;51.034;5.262;2024-01-11T08:05:38;17.90;30.00
12839;DHT22;6486;51.034;5.262;2024-01-11T08:08:04;17.90;30.00
12839;DHT22;6486;51.034;5.262;2024-01-11T08:10:30;17.90;30.00
12839;DHT22;6486;51.034;5.262;2024-01-11T08:12:59;17.90;30.00
12839;DHT22;6486;51.034;5.262;2024-01-11T08:15:25;17.90;30.00
12839;DHT22;6486;51.034;5.262;2024-01-11T08:17:51;17.90;30.00
12839;DHT22;6486;51.034;5.262;2024-01-11T08:20:16;17.90;30.00
12839;DHT22;6486;51.034;5.262;2024-01-11T08:22:42;17.90;30.00
12839;DHT22;6486;51.034;5.262;2024-01-11T08:25:14;17.90;30.00
12839;DHT22;6486;51.034;5.262;2024-01-11T08:27:40;17.90;30.00
12839;DHT22;6486;51.034;5.262;2024-01-11T08:30:06;17.90;30.00
12839;DHT22;6486;51.034;5.262;2024-01-11T08:32:33;17.90;30.00
12839;DHT22;6486;51.034;5.262;2024-01-11T08:35:05;17.90;30.00
12839;DHT22;6486;51.034;5.262;2024-01-11T08:37:32;17.90;30.00
12839;DHT22;6486;51.034;5.262;2024-01-11T08:39:57;17.90;30.00
12839;DHT22;6486;51.034;5.262;2024-01-11T08:42:23;17.90;30.00
12839;DHT22;6486;51.034;5.262;2024-01-11T08:44:49;17.90;30.00
12839;DHT22;6486;51.034;5.262;2024-01-11T08:47:14;17.90;30.00
12839;DHT22;6486;51.034;5.262;2024-01-11T08:49:40;17.90;30.00
12839;DHT22;6486;51.034;5.262;2024-01-11T08:52:08;17.90;30.00
12839;DHT22;6486;51.034;5.262;2024-01-11T08:54:34;17.90;30.00
12839;DHT22;6486;51.034;5.262;2024-01-11T08:57:00;18.00;30.10
12839;DHT22;6486;51.034;5.262;2024-01-11T08:59:25;17.90;30.00
12839;DHT22;6486;51.034;5.262;2024-01-11T09:01:52;18.00;30.10
12839;DHT22;6486;51.034;5.262;2024-01-11T09:04:18;18.00;30.00
12839;DHT22;6486;51.034;5.262;2024-01-11T09:06:44;18.00;30.10
12839;DHT22;6486;51.034;5.262;2024-01-11T09:09:11;17.90;30.00
12839;DHT22;6486;51.034;5.262;2024-01-11T09:11:39;17.90;30.00
12839;DHT22;6486;51.034;5.262;2024-01-11T09:14:06;17.90;30.00
12839;DHT22;6486;51.034;5.262;2024-01-11T09:16:34;17.90;30.00
12839;DHT22;6486;51.034;5.262;2024-01-11T09:18:59;17.90;30.10
12839;DHT22;6486;51.034;5.262;2024-01-11T09:21:26;17.90;30.10
12839;DHT22;6486;51.034;5.262;2024-01-11T09:23:52;17.90;30.00
12839;DHT22;6486;51.034;5.262;2024-01-11T09:26:17;18.00;30.10
12839;DHT22;6486;51.034;5.262;2024-01-11T09:28:43;18.00;30.10
12839;DHT22;6486;51.034;5.262;2024-01-11T09:31:09;18.00;30.10
12839;DHT22;6486;51.034;5.262;2024-01-11T09:33:34;18.00;30.10
12839;DHT22;6486;51.034;5.262;2024-01-11T09:36:00;18.00;30.10
12839;DHT22;6486;51.034;5.262;2024-01-11T09:38:26;18.00;30.10
12839;DHT22;6486;51.034;5.262;2024-01-11T09:41:12;18.00;30.10
12839;DHT22;6486;51.034;5.262;2024-01-11T09:43:41;18.00;30.10
12839;DHT22;6486;51.034;5.262;2024-01-11T09:46:07;18.00;30.10
12839;DHT22;6486;51.034;5.262;2024-01-11T09:48:36;18.00;30.10
12839;DHT22;6486;51.034;5.262;2024-01-11T09:51:03;18.00;30.10
12839;DHT22;6486;51.034;5.262;2024-01-11T09:53:32;18.00;30.10
12839;DHT22;6486;51.034;5.262;2024-01-11T09:56:01;18.00;30.10
12839;DHT22;6486;51.034;5.262;2024-01-11T09:58:27;18.00;30.10
12839;DHT22;6486;51.034;5.262;2024-01-11T10:00:54;18.00;30.20
12839;DHT22;6486;51.034;5.262;2024-01-11T10:03:23;18.00;30.10
12839;DHT22;6486;51.034;5.262;2024-01-11T10:05:50;18.00;30.10
12839;DHT22;6486;51.034;5.262;2024-01-11T10:08:19;18.00;30.20
12839;DHT22;6486;51.034;5.262;2024-01-11T10:10:46;18.00;30.20
12839;DHT22;6486;51.034;5.262;2024-01-11T10:13:12;18.00;30.20
12839;DHT22;6486;51.034;5.262;2024-01-11T10:15:38;18.00;30.20
12839;DHT22;6486;51.034;5.262;2024-01-11T10:18:04;18.00;30.20
12839;DHT22;6486;51.034;5.262;2024-01-11T10:20:30;18.00;30.20
12839;DHT22;6486;51.034;5.262;2024-01-11T10:22:57;18.00;30.20
12839;DHT22;6486;51.034;5.262;2024-01-11T10:25:23;18.00;30.20
12839;DHT22;6486;51.034;5.262;2024-01-11T10:27:49;18.00;30.20
12839;DHT22;6486;51.034;5.262;2024-01-11T10:30:16;18.00;30.20
12839;DHT22;6486;51.034;5.262;2024-01-11T10:32:43;18.00;30.20
12839;DHT22;6486;51.034;5.262;2024-01-11T10:35:09;18.00;30.20
12839;DHT22;6486;51.034;5.262;2024-01-11T10:37:36;18.00;30.20
12839;DHT22;6486;51.034;5.262;2024-01-11T10:40:06;18.00;30.20
12839;DHT22;6486;51.034;5.262;2024-01-11T10:42:50;18.00;30.20
12839;DHT22;6486;51.034;5.262;2024-01-11T10:45:18;18.00;30.30
12839;DHT22;6486;51.034;5.262;2024-01-11T10:48:13;18.00;30.30
12839;DHT22;6486;51.034;5.262;2024-01-11T10:50:43;18.00;30.30
12839;DHT22;6486;51.034;5.262;2024-01-11T10:53:31;18.00;30.30
12839;DHT22;6486;51.034;5.262;2024-01-11T10:55:59;18.00;30.30
12839;DHT22;6486;51.034;5.262;2024-01-11T10:58:26;18.00;30.30
12839;DHT22;6486;51.034;5.262;2024-01-11T11:00:53;18.00;30.90
12839;DHT22;6486;51.034;5.262;2024-01-11T11:03:25;18.00;30.30
12839;DHT22;6486;51.034;5.262;2024-01-11T11:05:54;18.00;30.40
12839;DHT22;6486;51.034;5.262;2024-01-11T11:08:23;18.00;30.30
12839;DHT22;6486;51.034;5.262;2024-01-11T11:10:53;18.00;30.40
12839;DHT22;6486;51.034;5.262;2024-01-11T11:13:21;18.00;30.40
12839;DHT22;6486;51.034;5.262;2024-01-11T11:15:47;18.00;30.40
12839;DHT22;6486;51.034;5.262;2024-01-11T11:18:14;18.00;30.40
12839;DHT22;6486;51.034;5.262;2024-01-11T11:20:40;18.00;30.40
12839;DHT22;6486;51.034;5.262;2024-01-11T11:23:11;18.00;31.00
12839;DHT22;6486;51.034;5.262;2024-01-11T11:25:39;18.00;30.40
12839;DHT22;6486;51.034;5.262;2024-01-11T11:28:06;18.00;30.40
12839;DHT22;6486;51.034;5.262;2024-01-11T11:30:33;18.00;30.40
12839;DHT22;6486;51.034;5.262;2024-01-11T11:35:36;18.00;30.40
12839;DHT22;6486;51.034;5.262;2024-01-11T11:38:02;18.00;30.40
12839;DHT22;6486;51.034;5.262;2024-01-11T11:40:38;18.00;31.00
12839;DHT22;6486;51.034;5.262;2024-01-11T11:43:06;18.00;30.40
12839;DHT22;6486;51.034;5.262;2024-01-11T11:45:32;18.00;30.40
12839;DHT22;6486;51.034;5.262;2024-01-11T11:47:57;18.00;30.50
12839;DHT22;6486;51.034;5.262;2024-01-11T11:50:24;18.00;30.40
12839;DHT22;6486;51.034;5.262;2024-01-11T11:52:57;18.00;30.40
12839;DHT22;6486;51.034;5.262;2024-01-11T11:55:23;18.00;30.50
12839;DHT22;6486;51.034;5.262;2024-01-11T11:57:51;18.00;30.50
12839;DHT22;6486;51.034;5.262;2024-01-11T12:00:21;18.00;30.50
12839;DHT22;6486;51.034;5.262;2024-01-11T12:02:47;18.00;30.50
12839;DHT22;6486;51.034;5.262;2024-01-11T12:05:16;18.00;30.50
12839;DHT22;6486;51.034;5.262;2024-01-11T12:07:41;18.00;30.50
12839;DHT22;6486;51.034;5.262;2024-01-11T12:10:07;18.00;30.50
12839;DHT22;6486;51.034;5.262;2024-01-11T12:12:36;18.00;30.50
12839;DHT22;6486;51.034;5.262;2024-01-11T12:15:04;18.00;30.50
12839;DHT22;6486;51.034;5.262;2024-01-11T12:17:30;18.00;30.50
12839;DHT22;6486;51.034;5.262;2024-01-11T12:19:56;18.00;30.50
12839;DHT22;6486;51.034;5.262;2024-01-11T12:22:23;18.00;30.50
12839;DHT22;6486;51.034;5.262;2024-01-11T12:24:48;18.00;30.50
12839;DHT22;6486;51.034;5.262;2024-01-11T12:27:14;18.00;30.50
12839;DHT22;6486;51.034;5.262;2024-01-11T12:29:40;18.00;30.50
12839;DHT22;6486;51.034;5.262;2024-01-11T12:32:06;18.00;30.50
12839;DHT22;6486;51.034;5.262;2024-01-11T12:34:32;18.00;30.50
12839;DHT22;6486;51.034;5.262;2024-01-11T12:36:58;18.00;30.50
12839;DHT22;6486;51.034;5.262;2024-01-11T12:39:27;18.00;30.50
12839;DHT22;6486;51.034;5.262;2024-01-11T12:41:54;18.00;30.50
12839;DHT22;6486;51.034;5.262;2024-01-11T12:44:25;18.00;30.50
12839;DHT22;6486;51.034;5.262;2024-01-11T12:46:51;18.00;30.50
12839;DHT22;6486;51.034;5.262;2024-01-11T12:49:18;18.10;30.60
12839;DHT22;6486;51.034;5.262;2024-01-11T12:51:43;18.00;30.50
12839;DHT22;6486;51.034;5.262;2024-01-11T12:54:13;18.00;30.60
12839;DHT22;6486;51.034;5.262;2024-01-11T12:56:45;18.00;30.60
12839;DHT22;6486;51.034;5.262;2024-01-11T12:59:11;18.00;30.60
12839;DHT22;6486;51.034;5.262;2024-01-11T13:01:38;18.10;30.60
12839;DHT22;6486;51.034;5.262;2024-01-11T13:04:05;18.00;30.60
12839;DHT22;6486;51.034;5.262;2024-01-11T13:06:31;18.00;30.60
12839;DHT22;6486;51.034;5.262;2024-01-11T13:08:57;18.00;30.60
12839;DHT22;6486;51.034;5.262;2024-01-11T13:11:23;18.00;30.60
12839;DHT22;6486;51.034;5.262;2024-01-11T13:13:50;18.00;30.60
12839;DHT22;6486;51.034;5.262;2024-01-11T13:16:17;18.00;30.60
12839;DHT22;6486;51.034;5.262;2024-01-11T13:18:45;18.10;30.60
12839;DHT22;6486;51.034;5.262;2024-01-11T13:21:11;18.10;30.70
12839;DHT22;6486;51.034;5.262;2024-01-11T13:23:39;18.10;30.70
12839;DHT22;6486;51.034;5.262;2024-01-11T13:26:06;18.10;30.70
12839;DHT22;6486;51.034;5.262;2024-01-11T13:28:33;18.10;30.70
12839;DHT22;6486;51.034;5.262;2024-01-11T13:30:59;18.10;30.70
12839;DHT22;6486;51.034;5.262;2024-01-11T13:33:25;18.10;30.70
12839;DHT22;6486;51.034;5.262;2024-01-11T13:35:51;18.10;30.70
12839;DHT22;6486;51.034;5.262;2024-01-11T13:38:17;18.00;30.70
12839;DHT22;6486;51.034;5.262;2024-01-11T13:40:43;18.00;30.70
12839;DHT22;6486;51.034;5.262;2024-01-11T13:43:09;18.00;30.70
12839;DHT22;6486;51.034;5.262;2024-01-11T13:45:36;18.00;30.70
12839;DHT22;6486;51.034;5.262;2024-01-11T13:48:05;18.00;30.80
12839;DHT22;6486;51.034;5.262;2024-01-11T13:50:32;18.00;30.80
12839;DHT22;6486;51.034;5.262;2024-01-11T13:52:58;18.00;30.80
12839;DHT22;6486;51.034;5.262;2024-01-11T13:55:24;18.00;30.80
12839;DHT22;6486;51.034;5.262;2024-01-11T13:57:51;18.00;30.80
12839;DHT22;6486;51.034;5.262;2024-01-11T14:00:17;18.00;30.80
12839;DHT22;6486;51.034;5.262;2024-01-11T14:02:44;18.00;30.80
12839;DHT22;6486;51.034;5.262;2024-01-11T14:05:13;18.10;30.90
12839;DHT22;6486;51.034;5.262;2024-01-11T14:07:42;18.10;30.90
12839;DHT22;6486;51.034;5.262;2024-01-11T14:10:09;18.10;30.90
12839;DHT22;6486;51.034;5.262;2024-01-11T14:12:36;18.10;30.90
12839;DHT22;6486;51.034;5.262;2024-01-11T14:15:03;18.10;30.90
12839;DHT22;6486;51.034;5.262;2024-01-11T14:17:29;18.10;30.90
12839;DHT22;6486;51.034;5.262;2024-01-11T14:19:55;18.10;30.90
12839;DHT22;6486;51.034;5.262;2024-01-11T14:22:21;18.10;30.80
12839;DHT22;6486;51.034;5.262;2024-01-11T14:24:46;18.10;30.80
12839;DHT22;6486;51.034;5.262;2024-01-11T14:27:12;18.10;30.80
12839;DHT22;6486;51.034;5.262;2024-01-11T14:29:40;18.10;30.80
12839;DHT22;6486;51.034;5.262;2024-01-11T14:32:06;18.10;30.80
12839;DHT22;6486;51.034;5.262;2024-01-11T14:34:31;18.10;30.70
12839;DHT22;6486;51.034;5.262;2024-01-11T14:36:58;18.10;30.70
12839;DHT22;6486;51.034;5.262;2024-01-11T14:39:24;18.10;30.70
12839;DHT22;6486;51.034;5.262;2024-01-11T14:41:52;18.10;30.70
12839;DHT22;6486;51.034;5.262;2024-01-11T14:44:18;18.00;30.60
12839;DHT22;6486;51.034;5.262;2024-01-11T14:46:43;18.00;30.50
12839;DHT22;6486;51.034;5.262;2024-01-11T14:49:09;18.00;30.50
12839;DHT22;6486;51.034;5.262;2024-01-11T14:51:35;18.00;30.50
12839;DHT22;6486;51.034;5.262;2024-01-11T14:54:03;18.00;30.40
12839;DHT22;6486;51.034;5.262;2024-01-11T14:56:32;18.00;30.40
12839;DHT22;6486;51.034;5.262;2024-01-11T14:58:57;18.00;30.40
12839;DHT22;6486;51.034;5.262;2024-01-11T15:01:23;18.10;30.30
12839;DHT22;6486;51.034;5.262;2024-01-11T15:03:49;18.00;30.30
12839;DHT22;6486;51.034;5.262;2024-01-11T15:06:15;18.10;30.30
12839;DHT22;6486;51.034;5.262;2024-01-11T15:08:41;18.10;30.30
12839;DHT22;6486;51.034;5.262;2024-01-11T15:11:07;18.10;30.20
12839;DHT22;6486;51.034;5.262;2024-01-11T15:13:33;18.10;30.20
12839;DHT22;6486;51.034;5.262;2024-01-11T15:16:01;18.10;30.20
12839;DHT22;6486;51.034;5.262;2024-01-11T15:18:27;18.00;30.10
12839;DHT22;6486;51.034;5.262;2024-01-11T15:20:52;18.00;30.10
12839;DHT22;6486;51.034;5.262;2024-01-11T15:23:18;18.00;30.10
12839;DHT22;6486;51.034;5.262;2024-01-11T15:25:44;18.00;30.10
12839;DHT22;6486;51.034;5.262;2024-01-11T15:28:13;18.00;30.00
12839;DHT22;6486;51.034;5.262;2024-01-11T15:30:38;18.00;30.10
12839;DHT22;6486;51.034;5.262;2024-01-11T15:33:04;18.00;30.00
12839;DHT22;6486;51.034;5.262;2024-01-11T15:35:30;18.00;30.10
12839;DHT22;6486;51.034;5.262;2024-01-11T15:37:56;18.00;30.00
12839;DHT22;6486;51.034;5.262;2024-01-11T15:40:21;18.00;30.10
12839;DHT22;6486;51.034;5.262;2024-01-11T15:42:47;18.00;30.00
12839;DHT22;6486;51.034;5.262;2024-01-11T15:45:15;18.00;30.00